Time;durP1;ratioP1;P1;durP2;ratioP2;P2;SDS_P1;SDS_P2;PMS_P1;PMS_P2;Temp;Humidity;BMP_temperature;BMP_pressure;BME280_temperature;BME280_humidity;BME280_pressure;Samples;Min_cycle;Max_cycle;Signal;HPM_P1;HPM_P2
2021/12/02 00:00:53;;;;;;;5.57;2.70;;;5.10;99.90;;;;;;5055053;28;20472;-73
2021/12/02 00:03:21;;;;;;;5.57;2.87;;;5.10;99.90;;;;;;5054854;28;20463;-74
2021/12/02 00:05:48;;;;;;;4.93;3.20;;;5.10;99.90;;;;;;5056424;28;20455;-74
2021/12/02 00:08:15;;;;;;;6.93;2.70;;;5.10;99.90;;;;;;5054973;28;20491;-73
2021/12/02 00:10:41;;;;;;;5.73;3.23;;;5.10;99.90;;;;;;5054275;28;20484;-73
2021/12/02 00:13:10;;;;;;;7.80;3.13;;;5.10;99.90;;;;;;5054517;28;20832;-73
2021/12/02 00:15:42;;;;;;;2.30;2.20;;;5.10;99.90;;;;;;5053264;28;20456;-73
2021/12/02 00:18:31;;;;;;;6.67;2.47;;;5.10;99.90;;;;;;5053866;28;20780;-73
2021/12/02 00:21:03;;;;;;;2.90;2.70;;;5.10;99.90;;;;;;5053859;28;21012;-73
2021/12/02 00:23:36;;;;;;;16.00;3.63;;;5.10;99.90;;;;;;5054269;28;20522;-73
2021/12/02 00:26:05;;;;;;;7.77;2.97;;;5.00;99.90;;;;;;5052712;28;20947;-73
2021/12/02 00:28:32;;;;;;;7.67;2.57;;;5.00;99.90;;;;;;5054047;28;20967;-73
2021/12/02 00:31:00;;;;;;;5.23;2.73;;;5.00;99.90;;;;;;5054376;28;20487;-73
2021/12/02 00:33:29;;;;;;;9.70;2.70;;;5.00;99.90;;;;;;5054255;28;20803;-73
2021/12/02 00:35:56;;;;;;;3.20;2.50;;;5.00;99.90;;;;;;5053455;28;20436;-73
2021/12/02 00:38:26;;;;;;;5.27;2.57;;;5.00;99.90;;;;;;5054036;28;20464;-73
2021/12/02 00:40:54;;;;;;;6.90;2.60;;;5.00;99.90;;;;;;5053723;28;20445;-73
2021/12/02 00:43:21;;;;;;;16.27;3.30;;;4.90;99.90;;;;;;5054198;28;20556;-74
2021/12/02 00:45:47;;;;;;;7.70;3.37;;;4.90;99.90;;;;;;5053353;28;20589;-72
2021/12/02 00:48:15;;;;;;;6.57;2.70;;;4.90;99.90;;;;;;5053861;28;20479;-72
2021/12/02 00:50:45;;;;;;;4.60;2.43;;;4.90;99.90;;;;;;5053591;28;20448;-72
2021/12/02 00:53:12;;;;;;;4.03;2.40;;;4.90;99.90;;;;;;5053543;28;20444;-73
2021/12/02 00:55:41;;;;;;;6.63;2.77;;;4.90;99.90;;;;;;5052958;28;20449;-72
2021/12/02 00:58:11;;;;;;;14.37;3.20;;;4.90;99.90;;;;;;5054150;28;20496;-75
2021/12/02 01:00:39;;;;;;;13.17;3.70;;;4.90;99.90;;;;;;5053540;28;20453;-73
2021/12/02 01:03:07;;;;;;;9.70;2.90;;;4.90;99.90;;;;;;5053226;28;20936;-73
2021/12/02 01:05:34;;;;;;;6.27;3.10;;;4.80;99.90;;;;;;5052804;28;20452;-73
2021/12/02 01:08:01;;;;;;;5.30;2.87;;;4.90;99.90;;;;;;5053220;28;20476;-72
2021/12/02 01:10:28;;;;;;;6.20;2.83;;;4.80;99.90;;;;;;5033503;28;20892;-72
2021/12/02 01:12:58;;;;;;;13.13;3.13;;;4.80;99.90;;;;;;5033595;28;20489;-72
2021/12/02 01:15:25;;;;;;;3.67;2.33;;;4.90;99.90;;;;;;5042514;28;20451;-75
2021/12/02 01:17:52;;;;;;;3.73;2.60;;;4.90;99.90;;;;;;5053684;28;20494;-73
2021/12/02 01:20:19;;;;;;;5.20;2.90;;;4.90;99.90;;;;;;5053038;28;20448;-72
2021/12/02 01:22:48;;;;;;;4.13;2.50;;;4.90;99.90;;;;;;5052872;28;20531;-73
2021/12/02 01:25:18;;;;;;;5.33;2.50;;;4.90;99.90;;;;;;5052639;28;20455;-72
2021/12/02 01:27:48;;;;;;;10.33;2.70;;;4.90;99.90;;;;;;5053147;28;20888;-73
2021/12/02 01:30:16;;;;;;;8.20;3.53;;;4.90;99.90;;;;;;5052477;28;20456;-72
2021/12/02 01:32:47;;;;;;;6.67;2.80;;;4.90;99.90;;;;;;5052368;28;20488;-72
2021/12/02 01:35:14;;;;;;;8.70;2.57;;;4.90;99.90;;;;;;5052182;28;20445;-73
2021/12/02 01:37:41;;;;;;;5.13;2.70;;;4.90;99.90;;;;;;5053224;28;20476;-73
2021/12/02 01:40:09;;;;;;;7.17;3.00;;;4.90;99.90;;;;;;5052674;28;20535;-73
2021/12/02 01:42:40;;;;;;;4.33;2.40;;;4.90;99.90;;;;;;5052615;28;20448;-73
2021/12/02 01:45:08;;;;;;;3.50;2.73;;;4.80;99.90;;;;;;5052179;28;20949;-72
2021/12/02 01:47:44;;;;;;;7.50;2.53;;;4.90;99.90;;;;;;5052255;28;20488;-72
2021/12/02 01:50:15;;;;;;;7.10;2.67;;;4.80;99.90;;;;;;5052753;28;20478;-72
2021/12/02 01:52:45;;;;;;;5.63;2.40;;;4.80;99.90;;;;;;5052690;28;20495;-72
2021/12/02 01:55:14;;;;;;;5.77;2.63;;;4.80;99.90;;;;;;5052268;28;20448;-73
2021/12/02 01:57:47;;;;;;;3.40;2.40;;;4.80;99.90;;;;;;5052444;28;20535;-72
2021/12/02 02:00:17;;;;;;;6.20;2.60;;;4.80;99.90;;;;;;5052526;28;20757;-73
2021/12/02 02:02:45;;;;;;;4.37;2.60;;;4.80;99.90;;;;;;5052294;28;20830;-72
2021/12/02 02:05:14;;;;;;;5.53;2.73;;;4.80;99.90;;;;;;5052394;28;20937;-72
2021/12/02 02:07:49;;;;;;;2.93;2.50;;;4.80;99.90;;;;;;5052553;28;20506;-73
2021/12/02 02:10:17;;;;;;;7.73;2.93;;;4.80;99.90;;;;;;5052313;28;20505;-73
2021/12/02 02:12:43;;;;;;;7.00;2.70;;;4.80;99.90;;;;;;5052678;28;20832;-73
2021/12/02 02:15:10;;;;;;;5.87;2.50;;;4.80;99.90;;;;;;5052265;28;20453;-73
2021/12/02 02:17:42;;;;;;;8.13;3.10;;;4.70;99.90;;;;;;5052393;28;20479;-73
2021/12/02 02:20:13;;;;;;;5.37;2.70;;;4.80;99.90;;;;;;5052251;28;20453;-72
2021/12/02 02:22:41;;;;;;;5.10;2.97;;;4.80;99.90;;;;;;5052683;28;20460;-73
2021/12/02 02:25:12;;;;;;;4.90;2.67;;;4.80;99.90;;;;;;5051233;28;20456;-73
2021/12/02 02:27:39;;;;;;;8.73;2.60;;;4.90;99.90;;;;;;5052346;28;20480;-73
2021/12/02 02:30:10;;;;;;;10.73;3.17;;;4.90;99.90;;;;;;5052462;28;20455;-73
2021/12/02 02:32:37;;;;;;;3.53;2.97;;;4.80;99.90;;;;;;5052494;28;20533;-73
2021/12/02 02:35:05;;;;;;;6.97;2.30;;;4.80;99.90;;;;;;5051943;28;20540;-73
2021/12/02 02:37:34;;;;;;;9.87;2.30;;;4.80;99.90;;;;;;5051721;28;20472;-73
2021/12/02 02:40:04;;;;;;;5.87;2.73;;;4.80;99.90;;;;;;5051889;28;20890;-73
2021/12/02 02:42:32;;;;;;;2.73;2.47;;;4.80;99.90;;;;;;5051933;28;20448;-73
2021/12/02 02:44:59;;;;;;;9.87;2.97;;;4.70;99.90;;;;;;5051098;28;20980;-73
2021/12/02 02:47:27;;;;;;;7.63;2.40;;;4.70;99.90;;;;;;5051688;28;20460;-73
2021/12/02 02:49:54;;;;;;;4.17;2.97;;;4.70;99.90;;;;;;5051399;28;20463;-73
2021/12/02 02:52:21;;;;;;;18.90;3.10;;;4.70;99.90;;;;;;5052074;28;20480;-73
2021/12/02 02:54:48;;;;;;;7.43;3.27;;;4.70;99.90;;;;;;5050501;28;20865;-73
2021/12/02 02:57:17;;;;;;;5.33;2.67;;;4.70;99.90;;;;;;5052146;28;20449;-73
2021/12/02 02:59:59;;;;;;;9.80;3.00;;;4.70;99.90;;;;;;5051695;28;20456;-73
2021/12/02 03:02:31;;;;;;;6.07;3.00;;;4.70;99.90;;;;;;5032012;28;20437;-72
2021/12/02 03:05:06;;;;;;;7.17;2.90;;;4.70;99.90;;;;;;5032184;28;20484;-72
2021/12/02 03:07:36;;;;;;;8.00;3.23;;;4.70;99.90;;;;;;5031984;28;20481;-73
2021/12/02 03:10:11;;;;;;;7.00;3.07;;;4.70;99.90;;;;;;5050963;28;20547;-73
2021/12/02 03:12:43;;;;;;;17.27;3.97;;;4.70;99.90;;;;;;5051047;28;20542;-73
2021/12/02 03:17:55;;;;;;;4.80;4.00;;;4.80;99.90;;;;;;5051507;28;20813;-73
2021/12/02 03:20:21;;;;;;;4.50;2.80;;;4.70;99.90;;;;;;5051597;28;20555;-73
2021/12/02 03:22:48;;;;;;;12.60;3.60;;;4.80;99.90;;;;;;5051206;28;20840;-73
2021/12/02 03:25:15;;;;;;;11.17;3.60;;;4.80;99.90;;;;;;5051212;28;20455;-72
2021/12/02 03:27:43;;;;;;;10.00;2.83;;;4.80;99.90;;;;;;5051435;28;20472;-73
2021/12/02 03:30:10;;;;;;;4.27;3.13;;;4.80;99.90;;;;;;5050415;28;20575;-72
2021/12/02 03:32:38;;;;;;;8.20;3.30;;;4.70;99.90;;;;;;5051059;28;21097;-73
2021/12/02 03:35:07;;;;;;;7.90;2.90;;;4.70;99.90;;;;;;5050652;28;20503;-73
2021/12/02 03:37:33;;;;;;;9.20;3.53;;;4.70;99.90;;;;;;5050719;28;20842;-73
2021/12/02 03:40:00;;;;;;;8.40;4.73;;;4.70;99.90;;;;;;5050839;28;20479;-73
2021/12/02 03:42:27;;;;;;;4.17;3.33;;;4.60;99.90;;;;;;5050892;28;20887;-73
2021/12/02 03:44:55;;;;;;;10.93;3.20;;;4.60;99.90;;;;;;5050067;28;20449;-73
2021/12/02 03:47:21;;;;;;;6.33;3.40;;;4.60;99.90;;;;;;5051275;28;20448;-73
2021/12/02 03:49:48;;;;;;;8.63;3.20;;;4.60;99.90;;;;;;5051579;28;20455;-73
2021/12/02 03:52:15;;;;;;;6.90;3.17;;;4.50;99.90;;;;;;5051282;28;20511;-73
2021/12/02 03:54:41;;;;;;;13.03;3.23;;;4.50;99.90;;;;;;5051080;28;20510;-73
2021/12/02 03:57:08;;;;;;;7.20;3.10;;;4.50;99.90;;;;;;5054209;28;20457;-73
2021/12/02 03:59:35;;;;;;;13.40;3.50;;;4.50;99.90;;;;;;5054948;28;20847;-73
2021/12/02 04:02:03;;;;;;;7.33;3.00;;;4.50;99.90;;;;;;5055114;28;20490;-73
2021/12/02 04:04:30;;;;;;;10.37;3.20;;;4.50;99.90;;;;;;5054927;28;20470;-73
2021/12/02 04:06:56;;;;;;;7.83;3.60;;;4.50;99.90;;;;;;5054470;28;20456;-73
2021/12/02 04:09:26;;;;;;;11.60;2.80;;;4.40;99.90;;;;;;5054613;28;20518;-74
2021/12/02 04:11:57;;;;;;;10.43;3.10;;;4.40;99.90;;;;;;5054178;28;20460;-73
2021/12/02 04:14:27;;;;;;;13.03;2.97;;;4.40;99.90;;;;;;5055030;28;20460;-73
2021/12/02 04:16:55;;;;;;;21.03;3.10;;;4.50;99.90;;;;;;5054446;28;20613;-73
2021/12/02 04:19:24;;;;;;;13.33;3.20;;;4.40;99.90;;;;;;5054589;28;20522;-73
2021/12/02 04:21:52;;;;;;;15.10;3.40;;;4.40;99.90;;;;;;5054239;28;20494;-73
2021/12/02 04:24:19;;;;;;;6.20;2.77;;;4.40;99.90;;;;;;5054405;28;20833;-73
2021/12/02 04:26:46;;;;;;;4.40;2.70;;;4.40;99.90;;;;;;5054118;28;20452;-73
2021/12/02 04:29:13;;;;;;;5.60;2.50;;;4.40;99.90;;;;;;5054422;28;20491;-73
2021/12/02 04:31:44;;;;;;;8.43;2.60;;;4.40;99.90;;;;;;5054570;28;20876;-73
2021/12/02 04:34:11;;;;;;;7.40;2.83;;;4.40;99.90;;;;;;5054184;28;20443;-73
2021/12/02 04:36:40;;;;;;;8.87;3.20;;;4.30;99.90;;;;;;5053855;28;20437;-73
2021/12/02 04:39:07;;;;;;;5.60;2.63;;;4.40;99.90;;;;;;5054481;28;20465;-73
2021/12/02 04:41:34;;;;;;;12.40;3.27;;;4.40;99.90;;;;;;5054227;28;20448;-73
2021/12/02 04:44:01;;;;;;;6.20;2.47;;;4.40;99.90;;;;;;5053815;28;20867;-73
2021/12/02 04:46:27;;;;;;;4.17;2.20;;;4.40;99.90;;;;;;5053886;28;20539;-73
2021/12/02 04:48:54;;;;;;;7.63;2.60;;;4.40;99.90;;;;;;5053669;28;20534;-72
2021/12/02 04:51:21;;;;;;;8.57;2.50;;;4.40;99.90;;;;;;5053862;28;20535;-73
2021/12/02 04:53:49;;;;;;;15.00;4.30;;;4.30;99.90;;;;;;5053778;28;20546;-73
2021/12/02 04:56:16;;;;;;;11.33;2.97;;;4.30;99.90;;;;;;5053463;28;20491;-73
2021/12/02 04:58:42;;;;;;;16.00;2.70;;;4.30;99.90;;;;;;5053451;28;20476;-73
2021/12/02 05:01:09;;;;;;;16.10;2.60;;;4.30;99.90;;;;;;5053647;28;20466;-73
2021/12/02 05:03:35;;;;;;;10.53;2.73;;;4.30;99.90;;;;;;5053760;28;20452;-73
2021/12/02 05:06:02;;;;;;;7.47;2.63;;;4.30;99.90;;;;;;5053522;28;20782;-73
2021/12/02 05:08:29;;;;;;;3.40;2.27;;;4.30;99.90;;;;;;5053222;28;21074;-73
2021/12/02 05:10:57;;;;;;;3.83;2.53;;;4.30;99.90;;;;;;5054119;28;20455;-73
2021/12/02 05:13:24;;;;;;;13.30;2.60;;;4.30;99.90;;;;;;5055404;28;20480;-73
2021/12/02 05:15:50;;;;;;;7.90;2.10;;;4.30;99.90;;;;;;5055471;28;20502;-73
2021/12/02 05:18:17;;;;;;;11.23;2.47;;;4.30;99.90;;;;;;5055603;28;20464;-73
2021/12/02 05:20:44;;;;;;;14.27;3.13;;;4.20;99.90;;;;;;5054833;28;20448;-73
2021/12/02 05:23:10;;;;;;;9.23;2.90;;;4.30;99.90;;;;;;5033791;28;20437;-73
2021/12/02 05:25:37;;;;;;;4.13;2.00;;;4.20;99.90;;;;;;5033279;28;20449;-73
2021/12/02 05:28:05;;;;;;;4.17;2.00;;;4.30;99.90;;;;;;5033240;28;20476;-73
2021/12/02 05:30:32;;;;;;;6.20;2.10;;;4.30;99.90;;;;;;5041260;28;20494;-73
2021/12/02 05:32:58;;;;;;;4.10;2.00;;;4.30;99.90;;;;;;5053076;28;20484;-73
2021/12/02 05:35:25;;;;;;;6.53;2.07;;;4.30;99.90;;;;;;5052493;28;20453;-73
2021/12/02 05:37:52;;;;;;;12.40;2.43;;;4.30;99.90;;;;;;5052463;28;20473;-73
2021/12/02 05:40:19;;;;;;;3.53;1.87;;;4.20;99.90;;;;;;5052693;28;20444;-74
2021/12/02 05:42:46;;;;;;;7.67;2.13;;;4.20;99.90;;;;;;5052121;28;20448;-74
2021/12/02 05:45:14;;;;;;;9.20;2.00;;;4.20;99.90;;;;;;5052197;28;20453;-73
2021/12/02 05:47:41;;;;;;;6.77;2.40;;;4.20;99.90;;;;;;5052202;28;20514;-74
2021/12/02 05:50:08;;;;;;;13.93;2.70;;;4.20;99.90;;;;;;5059963;22;21007;-71
2021/12/02 05:52:35;;;;;;;14.30;2.33;;;4.10;99.90;;;;;;5032079;28;20481;-71
2021/12/02 05:55:01;;;;;;;5.57;2.10;;;4.20;99.90;;;;;;5031970;28;20457;-71
2021/12/02 05:57:28;;;;;;;4.97;2.17;;;4.10;99.90;;;;;;5031914;28;20453;-71
2021/12/02 05:59:55;;;;;;;5.00;2.30;;;4.10;99.90;;;;;;5031965;28;21075;-71
2021/12/02 06:02:23;;;;;;;5.33;2.27;;;4.10;99.90;;;;;;5031636;28;20450;-71
2021/12/02 06:04:52;;;;;;;8.20;2.57;;;4.10;99.90;;;;;;5032474;28;20552;-71
2021/12/02 06:07:19;;;;;;;4.27;2.20;;;4.10;99.90;;;;;;5031716;28;20457;-71
2021/12/02 06:09:45;;;;;;;3.80;1.90;;;4.10;99.90;;;;;;5031797;28;20543;-71
2021/12/02 06:12:12;;;;;;;1.93;1.83;;;4.10;99.90;;;;;;5032019;28;20453;-71
2021/12/02 06:14:39;;;;;;;5.10;2.50;;;4.10;99.90;;;;;;5032004;28;20457;-71
2021/12/02 06:17:06;;;;;;;5.03;2.13;;;4.10;99.90;;;;;;5031489;28;20453;-71
2021/12/02 06:19:34;;;;;;;2.33;1.93;;;4.00;99.90;;;;;;5031632;28;20484;-71
2021/12/02 06:22:01;;;;;;;3.83;1.60;;;4.00;99.90;;;;;;5013443;28;20947;-73
2021/12/02 06:24:31;;;;;;;3.20;1.80;;;4.00;99.90;;;;;;5012161;28;20532;-73
2021/12/02 06:26:58;;;;;;;2.80;1.70;;;3.90;99.90;;;;;;5012339;28;20512;-73
2021/12/02 06:29:25;;;;;;;3.00;1.80;;;3.80;99.90;;;;;;5020375;28;20499;-73
2021/12/02 06:31:51;;;;;;;1.80;1.70;;;3.80;99.90;;;;;;5031782;28;20499;-72
2021/12/02 06:34:18;;;;;;;1.77;1.60;;;3.70;99.90;;;;;;5031596;28;20543;-73
2021/12/02 06:36:46;;;;;;;3.37;1.80;;;3.70;99.90;;;;;;5030860;28;20488;-73
2021/12/02 06:39:13;;;;;;;2.00;1.90;;;3.70;99.90;;;;;;5031150;28;20497;-73
2021/12/02 06:41:39;;;;;;;1.57;1.47;;;3.60;99.90;;;;;;5031576;28;20825;-73
2021/12/02 06:44:06;;;;;;;1.60;1.50;;;3.60;99.90;;;;;;5031480;28;20452;-72
2021/12/02 06:46:33;;;;;;;1.90;1.53;;;3.60;99.90;;;;;;5031240;28;20449;-73
2021/12/02 06:49:00;;;;;;;2.50;1.57;;;3.60;99.90;;;;;;5031104;28;20860;-73
2021/12/02 06:51:28;;;;;;;4.27;1.70;;;3.60;99.90;;;;;;5030991;28;20930;-72
2021/12/02 06:53:56;;;;;;;1.93;1.63;;;3.60;99.90;;;;;;5030490;28;20496;-73
2021/12/02 06:56:23;;;;;;;1.83;1.60;;;3.50;99.90;;;;;;5030935;28;20832;-73
2021/12/02 06:58:49;;;;;;;1.60;1.50;;;3.50;99.90;;;;;;5030589;28;20523;-72
2021/12/02 07:01:16;;;;;;;1.50;1.40;;;3.50;99.90;;;;;;5030910;28;20572;-72
2021/12/02 07:03:43;;;;;;;1.70;1.60;;;3.40;99.90;;;;;;5030747;28;20449;-71
2021/12/02 07:06:09;;;;;;;1.50;1.40;;;3.40;99.90;;;;;;5030959;28;20469;-70
2021/12/02 07:08:36;;;;;;;4.10;1.67;;;3.40;99.90;;;;;;5030817;28;21027;-69
2021/12/02 07:11:06;;;;;;;1.50;1.40;;;3.30;99.90;;;;;;5031131;28;20450;-69
2021/12/02 07:13:35;;;;;;;1.73;1.20;;;3.30;99.90;;;;;;5030898;28;20485;-69
2021/12/02 07:16:02;;;;;;;1.90;1.80;;;3.40;99.90;;;;;;5031153;28;20545;-68
2021/12/02 07:18:28;;;;;;;1.70;1.60;;;3.30;99.90;;;;;;5030949;28;20807;-68
2021/12/02 07:20:55;;;;;;;1.70;1.60;;;3.30;99.90;;;;;;5030988;28;20465;-69
2021/12/02 07:23:23;;;;;;;2.70;1.40;;;3.30;99.90;;;;;;5031110;28;20452;-69
2021/12/02 07:25:50;;;;;;;1.60;1.50;;;3.30;99.90;;;;;;5030283;28;20445;-69
2021/12/02 07:28:19;;;;;;;3.00;2.43;;;3.20;99.90;;;;;;5030881;28;20457;-69
2021/12/02 07:30:51;;;;;;;3.53;2.70;;;3.20;99.90;;;;;;5030947;28;20855;-69
2021/12/02 07:33:19;;;;;;;7.37;3.63;;;3.20;99.90;;;;;;5034801;28;20507;-69
2021/12/02 07:35:46;;;;;;;4.50;2.37;;;3.20;99.90;;;;;;5034344;28;20449;-69
2021/12/02 07:38:12;;;;;;;34.20;11.83;;;3.20;99.90;;;;;;5022169;28;20871;-69
2021/12/02 07:40:41;;;;;;;4.23;2.43;;;3.20;99.90;;;;;;5052680;28;20472;-69
2021/12/02 07:43:08;;;;;;;11.70;5.80;;;3.20;99.90;;;;;;5026169;28;20454;-68
2021/12/02 07:45:36;;;;;;;2.30;2.10;;;3.20;99.90;;;;;;5021558;28;20453;-68
2021/12/02 07:48:04;;;;;;;7.43;4.30;;;3.20;99.90;;;;;;5026042;28;20461;-69
2021/12/02 07:50:32;;;;;;;5.27;3.20;;;3.20;99.90;;;;;;5020049;28;20889;-69
2021/12/02 07:53:01;;;;;;;8.83;4.93;;;3.20;99.90;;;;;;5028115;28;20840;-69
2021/12/02 07:55:29;;;;;;;11.43;5.87;;;3.20;99.90;;;;;;5017573;28;20519;-69
2021/12/02 07:57:56;;;;;;;6.47;4.17;;;3.20;99.90;;;;;;5032101;28;21027;-69
2021/12/02 08:00:24;;;;;;;3.67;3.37;;;3.20;99.90;;;;;;5019579;28;21086;-69
2021/12/02 08:02:54;;;;;;;4.00;3.60;;;3.20;99.90;;;;;;5012835;28;21020;-69
2021/12/02 08:05:23;;;;;;;6.03;5.43;;;3.20;99.90;;;;;;5019696;28;20450;-69
2021/12/02 08:07:51;;;;;;;2.90;2.70;;;3.20;99.90;;;;;;5021515;28;21000;-68
2021/12/02 08:10:18;;;;;;;2.60;2.40;;;3.20;99.90;;;;;;5019373;28;20473;-69
2021/12/02 08:12:48;;;;;;;2.30;2.20;;;3.20;99.90;;;;;;5019087;28;20461;-69
2021/12/02 08:15:17;;;;;;;2.30;2.10;;;3.20;99.90;;;;;;5025706;28;20500;-70
2021/12/02 08:17:44;;;;;;;4.30;2.17;;;3.20;99.90;;;;;;5013544;28;20457;-70
2021/12/02 08:20:12;;;;;;;2.37;2.10;;;3.20;99.90;;;;;;5017693;28;20536;-73
2021/12/02 08:22:39;;;;;;;2.60;2.40;;;3.30;99.90;;;;;;5011551;28;20462;-72
2021/12/02 08:25:07;;;;;;;2.90;2.70;;;3.80;99.90;;;;;;5013470;28;20512;-73
2021/12/02 08:27:34;;;;;;;3.30;2.60;;;4.20;99.90;;;;;;5031935;28;20457;-72
2021/12/02 08:30:03;;;;;;;2.50;2.30;;;4.40;99.90;;;;;;5022687;28;20496;-70
2021/12/02 08:32:30;;;;;;;3.00;2.80;;;4.50;99.90;;;;;;5027526;28;20571;-71
2021/12/02 08:34:58;;;;;;;4.93;3.07;;;4.40;99.90;;;;;;5028552;28;20543;-71
2021/12/02 08:37:29;;;;;;;3.17;2.90;;;4.10;99.90;;;;;;5028418;28;20950;-70
2021/12/02 08:39:58;;;;;;;3.43;3.13;;;4.10;99.90;;;;;;5029412;28;20503;-70
2021/12/02 08:42:25;;;;;;;3.20;2.90;;;4.00;99.90;;;;;;5025136;28;20527;-70
2021/12/02 08:44:53;;;;;;;5.00;3.20;;;3.90;99.90;;;;;;5022155;28;20557;-71
2021/12/02 08:47:22;;;;;;;2.80;2.50;;;3.90;99.90;;;;;;5019806;28;20454;-71
2021/12/02 08:49:52;;;;;;;3.93;3.10;;;3.90;99.90;;;;;;5022777;28;20485;-70
2021/12/02 08:52:19;;;;;;;5.10;3.67;;;3.90;99.90;;;;;;5022782;28;20459;-70
2021/12/02 08:54:47;;;;;;;3.57;3.33;;;3.90;99.90;;;;;;5029974;28;20482;-71
2021/12/02 08:57:14;;;;;;;8.13;4.10;;;3.90;99.90;;;;;;5013317;28;20517;-70
2021/12/02 08:59:43;;;;;;;3.60;2.80;;;3.90;99.90;;;;;;5013899;28;20486;-70
2021/12/02 09:02:09;;;;;;;3.60;2.80;;;3.90;99.90;;;;;;5023878;28;20462;-70
2021/12/02 09:04:36;;;;;;;3.10;2.80;;;3.90;99.90;;;;;;5026170;28;20449;-70
2021/12/02 09:07:03;;;;;;;2.97;2.63;;;3.90;99.90;;;;;;5013258;28;20489;-70
2021/12/02 09:09:29;;;;;;;8.53;3.40;;;3.90;99.90;;;;;;5028934;28;20485;-70
2021/12/02 09:11:57;;;;;;;5.77;3.63;;;3.90;99.90;;;;;;5031904;28;20519;-70
2021/12/02 09:14:24;;;;;;;7.83;3.77;;;3.90;99.90;;;;;;5032529;28;20496;-70
2021/12/02 09:16:51;;;;;;;3.80;3.03;;;3.90;99.90;;;;;;5026922;28;20476;-70
2021/12/02 09:19:18;;;;;;;4.10;3.20;;;3.90;99.90;;;;;;5015827;28;21025;-70
2021/12/02 09:21:45;;;;;;;3.27;3.07;;;3.90;99.90;;;;;;5017021;28;20596;-70
2021/12/02 09:24:12;;;;;;;4.20;3.40;;;3.90;99.90;;;;;;5022959;28;20449;-69
2021/12/02 09:26:39;;;;;;;4.67;3.77;;;3.90;99.90;;;;;;5016508;28;20459;-69
2021/12/02 09:29:07;;;;;;;9.13;4.30;;;3.90;99.90;;;;;;5012713;28;20524;-70
2021/12/02 09:31:35;;;;;;;4.27;3.87;;;3.90;99.90;;;;;;5015535;28;20516;-69
2021/12/02 09:34:01;;;;;;;7.13;3.33;;;3.90;99.90;;;;;;5022064;28;20493;-70
2021/12/02 09:36:28;;;;;;;10.93;3.70;;;3.80;99.90;;;;;;5026225;28;20515;-70
2021/12/02 09:38:55;;;;;;;3.97;3.50;;;3.90;99.90;;;;;;5018723;28;20478;-69
2021/12/02 09:41:21;;;;;;;7.43;3.57;;;3.90;99.90;;;;;;5013156;28;20523;-70
2021/12/02 09:43:48;;;;;;;4.50;2.80;;;3.90;99.90;;;;;;5017170;28;20561;-70
2021/12/02 09:46:16;;;;;;;4.00;3.60;;;3.90;99.90;;;;;;5017444;28;20513;-71
2021/12/02 09:48:44;;;;;;;2.97;2.67;;;3.80;99.90;;;;;;5026301;28;20450;-71
2021/12/02 09:51:13;;;;;;;5.87;3.50;;;3.80;99.90;;;;;;5011139;28;20453;-71
2021/12/02 09:53:51;;;;;;;8.30;3.40;;;3.80;99.90;;;;;;5012149;28;20544;-70
2021/12/02 09:56:21;;;;;;;5.47;3.60;;;3.70;99.90;;;;;;5021763;28;20937;-70
2021/12/02 09:58:50;;;;;;;4.17;3.63;;;3.70;99.90;;;;;;5022423;28;20517;-70
2021/12/02 10:01:20;;;;;;;4.33;3.60;;;3.70;99.90;;;;;;5023149;28;20541;-70
2021/12/02 10:03:50;;;;;;;3.50;3.00;;;3.80;99.90;;;;;;5028321;28;20520;-70
2021/12/02 10:06:24;;;;;;;4.53;3.63;;;3.80;99.90;;;;;;5021480;28;20460;-70
2021/12/02 10:08:54;;;;;;;4.10;3.80;;;3.90;99.90;;;;;;5017699;28;20870;-70
2021/12/02 10:11:31;;;;;;;4.80;3.27;;;3.90;99.90;;;;;;5010986;28;20545;-70
2021/12/02 10:14:12;;;;;;;3.13;2.83;;;4.00;99.90;;;;;;5030954;28;20926;-70
2021/12/02 10:16:43;;;;;;;6.10;3.57;;;4.00;99.90;;;;;;5017887;28;20457;-70
2021/12/02 10:19:11;;;;;;;3.37;3.07;;;4.10;99.90;;;;;;5011460;28;20481;-70
2021/12/02 10:21:40;;;;;;;4.80;3.07;;;4.20;99.90;;;;;;5020288;28;20458;-70
2021/12/02 10:24:10;;;;;;;3.50;2.93;;;4.20;99.90;;;;;;5016508;28;20451;-70
2021/12/02 10:26:39;;;;;;;3.07;2.87;;;4.30;99.90;;;;;;5022847;28;20476;-71
2021/12/02 10:29:12;;;;;;;4.03;2.90;;;4.40;99.90;;;;;;5017247;28;20470;-71
2021/12/02 10:31:43;;;;;;;3.40;2.40;;;4.50;99.90;;;;;;5020605;28;20944;-70
2021/12/02 10:34:10;;;;;;;3.30;2.73;;;4.60;99.90;;;;;;5021153;28;20890;-70
2021/12/02 10:36:40;;;;;;;9.53;2.60;;;4.70;99.90;;;;;;5025445;28;21031;-70
2021/12/02 10:39:13;;;;;;;2.63;2.43;;;4.80;99.90;;;;;;5029304;28;20488;-70
2021/12/02 10:41:43;;;;;;;2.23;2.13;;;4.80;99.90;;;;;;5024753;28;20449;-70
2021/12/02 10:44:16;;;;;;;3.20;2.70;;;4.90;99.90;;;;;;5023415;28;20465;-70
2021/12/02 10:46:57;;;;;;;3.00;2.80;;;4.80;99.90;;;;;;5015466;28;20920;-70
2021/12/02 10:49:24;;;;;;;8.70;2.80;;;4.60;99.90;;;;;;5010772;28;20478;-70
2021/12/02 10:51:53;;;;;;;4.70;3.93;;;4.60;99.90;;;;;;5011737;28;20863;-70
2021/12/02 10:54:22;;;;;;;5.93;2.60;;;4.50;99.90;;;;;;5021181;28;20998;-70
2021/12/02 10:56:50;;;;;;;2.90;2.70;;;4.60;99.90;;;;;;5026326;28;20511;-70
2021/12/02 10:59:29;;;;;;;3.10;2.90;;;4.80;99.90;;;;;;5023721;28;20477;-70
2021/12/02 11:01:59;;;;;;;4.07;2.80;;;5.00;99.90;;;;;;5010868;28;20461;-70
2021/12/02 11:04:34;;;;;;;3.80;3.30;;;5.20;99.90;;;;;;5020589;28;20453;-70
2021/12/02 11:07:02;;;;;;;2.70;2.50;;;5.20;99.90;;;;;;5027706;28;20488;-70
2021/12/02 11:09:30;;;;;;;3.57;2.93;;;5.20;99.90;;;;;;5022206;28;20482;-71
2021/12/02 11:12:12;;;;;;;3.27;3.00;;;5.00;99.90;;;;;;5027781;28;20450;-70
2021/12/02 11:14:42;;;;;;;3.73;2.73;;;4.90;99.90;;;;;;5031827;28;20511;-72
2021/12/02 11:17:12;;;;;;;2.83;2.50;;;4.80;99.90;;;;;;5031474;28;20560;-70
2021/12/02 11:19:39;;;;;;;4.97;2.93;;;4.70;99.90;;;;;;5027656;28;20473;-70
2021/12/02 11:22:09;;;;;;;3.60;3.30;;;4.60;99.90;;;;;;5018223;28;20457;-70
2021/12/02 11:24:36;;;;;;;6.13;3.30;;;4.50;99.90;;;;;;5020875;28;20462;-70
2021/12/02 11:27:16;;;;;;;3.30;3.00;;;4.50;99.90;;;;;;5014418;28;20516;-70
2021/12/02 11:29:48;;;;;;;3.07;2.77;;;4.40;99.90;;;;;;5014475;28;20470;-70
2021/12/02 11:32:37;;;;;;;5.17;3.07;;;4.40;99.90;;;;;;5031450;28;20449;-70
2021/12/02 11:35:09;;;;;;;3.63;3.10;;;4.40;99.90;;;;;;5028786;28;20876;-70
2021/12/02 11:37:38;;;;;;;3.43;3.13;;;4.30;99.90;;;;;;5031611;28;20453;-70
2021/12/02 11:40:08;;;;;;;4.60;3.30;;;4.30;99.90;;;;;;5031152;28;20496;-70
2021/12/02 11:42:35;;;;;;;2.90;2.73;;;4.30;99.90;;;;;;5033863;28;20847;-70
2021/12/02 11:45:02;;;;;;;3.60;3.30;;;4.40;99.90;;;;;;5030509;28;20434;-70
2021/12/02 11:47:31;;;;;;;3.57;3.30;;;4.40;99.90;;;;;;5014078;28;20439;-70
2021/12/02 11:49:58;;;;;;;8.93;3.70;;;4.50;99.90;;;;;;5022586;28;20571;-70
2021/12/02 11:52:25;;;;;;;4.10;3.23;;;4.60;99.90;;;;;;5023964;28;20877;-71
2021/12/02 11:54:52;;;;;;;6.77;3.10;;;4.60;99.90;;;;;;5020769;28;20846;-69
2021/12/02 11:57:20;;;;;;;2.80;2.60;;;4.70;99.90;;;;;;5024235;28;20941;-69
2021/12/02 11:59:47;;;;;;;2.93;2.67;;;4.80;99.90;;;;;;5045266;22;20509;-78
2021/12/02 12:02:17;;;;;;;3.37;3.07;;;4.80;99.90;;;;;;5021984;28;20458;-78
2021/12/02 12:04:55;;;;;;;3.43;3.07;;;4.80;99.90;;;;;;5029027;28;20453;-78
2021/12/02 12:07:22;;;;;;;2.43;2.23;;;4.80;99.90;;;;;;5028686;28;20442;-80
2021/12/02 12:09:49;;;;;;;2.93;2.73;;;4.80;99.90;;;;;;5039047;28;20472;-79
2021/12/02 12:12:16;;;;;;;3.00;2.70;;;4.70;99.90;;;;;;5040100;28;21010;-76
2021/12/02 12:14:44;;;;;;;3.33;2.80;;;4.70;99.90;;;;;;5032292;28;20485;-78
2021/12/02 12:17:12;;;;;;;3.23;2.50;;;4.70;99.90;;;;;;5036586;28;20545;-77
2021/12/02 12:19:42;;;;;;;3.43;3.20;;;4.70;99.90;;;;;;5043402;28;20475;-76
2021/12/02 12:22:13;;;;;;;5.73;2.50;;;4.70;99.90;;;;;;5029883;28;20527;-77
2021/12/02 12:24:42;;;;;;;4.90;3.23;;;4.70;99.90;;;;;;5032802;28;20480;-76
2021/12/02 12:27:14;;;;;;;4.00;2.47;;;4.70;99.90;;;;;;5028930;28;20519;-79
2021/12/02 12:29:42;;;;;;;3.13;2.93;;;4.70;99.90;;;;;;5032233;28;20535;-78
2021/12/02 12:32:47;;;;;;;7.10;3.17;;;4.70;99.90;;;;;;5017690;28;20454;-78
2021/12/02 12:35:24;;;;;;;4.07;2.90;;;4.80;99.90;;;;;;5039739;28;20495;-78
2021/12/02 12:38:04;;;;;;;3.17;2.87;;;4.90;99.90;;;;;;5073690;28;20505;-78
2021/12/02 12:40:48;;;;;;;3.60;2.60;;;5.00;99.90;;;;;;5074380;28;20908;-79
2021/12/02 12:43:22;;;;;;;4.60;2.00;;;5.00;99.90;;;;;;5078382;28;20539;-78
2021/12/02 12:45:49;;;;;;;2.57;2.37;;;5.00;99.90;;;;;;5079233;28;20447;-80
2021/12/02 12:48:31;;;;;;;3.80;2.40;;;4.90;99.90;;;;;;5083777;28;20450;-80
2021/12/02 12:51:16;;;;;;;3.17;2.00;;;4.90;99.90;;;;;;5091317;28;20977;-78
2021/12/02 12:53:48;;;;;;;2.13;1.93;;;4.90;99.90;;;;;;5078999;28;20479;-79
2021/12/02 12:56:16;;;;;;;2.50;1.80;;;4.90;99.90;;;;;;5079839;28;20544;-79
2021/12/02 12:58:58;;;;;;;2.13;1.93;;;4.80;99.90;;;;;;5081286;28;20479;-80
2021/12/02 13:01:27;;;;;;;2.60;1.50;;;5.00;99.90;;;;;;5067591;28;20448;-79
2021/12/02 13:04:18;;;;;;;2.20;1.80;;;5.30;99.90;;;;;;5068130;28;20540;-79
2021/12/02 13:06:54;;;;;;;2.40;2.07;;;5.80;99.90;;;;;;5086571;28;20969;-79